sensor_id;sensor_type;location;lat;lon;timestamp;P1;durP1;ratioP1;P2;durP2;ratioP2
63975;SDS011;50167;47.958;21.780;2023-08-21T00:01:22;13.83;;;11.28;;
63975;SDS011;50167;47.958;21.780;2023-08-21T00:03:49;14.35;;;12.95;;
63975;SDS011;50167;47.958;21.780;2023-08-21T00:06:15;15.10;;;13.35;;
63975;SDS011;50167;47.958;21.780;2023-08-21T00:08:41;15.25;;;13.03;;
63975;SDS011;50167;47.958;21.780;2023-08-21T00:11:07;14.43;;;12.82;;
63975;SDS011;50167;47.958;21.780;2023-08-21T00:13:34;13.32;;;12.07;;
63975;SDS011;50167;47.958;21.780;2023-08-21T00:16:00;19.17;;;12.28;;
63975;SDS011;50167;47.958;21.780;2023-08-21T00:18:26;15.98;;;13.20;;
63975;SDS011;50167;47.958;21.780;2023-08-21T00:20:53;14.63;;;12.93;;
63975;SDS011;50167;47.958;21.780;2023-08-21T00:23:19;13.35;;;11.95;;
63975;SDS011;50167;47.958;21.780;2023-08-21T00:25:46;13.75;;;11.28;;
63975;SDS011;50167;47.958;21.780;2023-08-21T00:28:13;13.68;;;11.73;;
63975;SDS011;50167;47.958;21.780;2023-08-21T00:30:42;14.78;;;13.28;;
63975;SDS011;50167;47.958;21.780;2023-08-21T00:33:08;18.48;;;14.55;;
63975;SDS011;50167;47.958;21.780;2023-08-21T00:35:34;14.30;;;12.93;;
63975;SDS011;50167;47.958;21.780;2023-08-21T00:38:01;16.80;;;13.65;;
63975;SDS011;50167;47.958;21.780;2023-08-21T00:40:28;13.90;;;12.60;;
63975;SDS011;50167;47.958;21.780;2023-08-21T00:42:56;15.13;;;12.82;;
63975;SDS011;50167;47.958;21.780;2023-08-21T00:45:22;15.15;;;13.62;;
63975;SDS011;50167;47.958;21.780;2023-08-21T00:47:49;16.57;;;12.07;;
63975;SDS011;50167;47.958;21.780;2023-08-21T00:50:15;14.70;;;13.28;;
63975;SDS011;50167;47.958;21.780;2023-08-21T00:52:43;15.53;;;12.40;;
63975;SDS011;50167;47.958;21.780;2023-08-21T00:55:13;17.17;;;13.48;;
63975;SDS011;50167;47.958;21.780;2023-08-21T00:57:40;14.95;;;13.45;;
63975;SDS011;50167;47.958;21.780;2023-08-21T01:00:07;15.63;;;13.43;;
63975;SDS011;50167;47.958;21.780;2023-08-21T01:02:38;13.48;;;12.15;;
63975;SDS011;50167;47.958;21.780;2023-08-21T01:05:04;19.55;;;12.70;;
63975;SDS011;50167;47.958;21.780;2023-08-21T01:07:32;18.95;;;12.85;;
63975;SDS011;50167;47.958;21.780;2023-08-21T01:10:09;13.08;;;11.78;;
63975;SDS011;50167;47.958;21.780;2023-08-21T01:15:18;16.05;;;14.43;;
63975;SDS011;50167;47.958;21.780;2023-08-21T01:17:45;16.20;;;14.60;;
63975;SDS011;50167;47.958;21.780;2023-08-21T01:20:13;14.07;;;12.68;;
63975;SDS011;50167;47.958;21.780;2023-08-21T01:22:42;15.78;;;13.28;;
63975;SDS011;50167;47.958;21.780;2023-08-21T01:25:11;17.27;;;13.65;;
63975;SDS011;50167;47.958;21.780;2023-08-21T01:27:38;14.28;;;12.93;;
63975;SDS011;50167;47.958;21.780;2023-08-21T01:30:10;16.45;;;12.95;;
63975;SDS011;50167;47.958;21.780;2023-08-21T01:32:56;15.32;;;12.45;;
63975;SDS011;50167;47.958;21.780;2023-08-21T01:35:31;15.38;;;13.20;;
63975;SDS011;50167;47.958;21.780;2023-08-21T01:38:01;13.30;;;12.00;;
63975;SDS011;50167;47.958;21.780;2023-08-21T01:40:29;14.18;;;12.78;;
63975;SDS011;50167;47.958;21.780;2023-08-21T01:42:55;14.73;;;13.05;;
63975;SDS011;50167;47.958;21.780;2023-08-21T01:45:22;16.85;;;11.90;;
63975;SDS011;50167;47.958;21.780;2023-08-21T01:47:49;16.25;;;12.85;;
63975;SDS011;50167;47.958;21.780;2023-08-21T01:50:15;15.25;;;13.65;;
63975;SDS011;50167;47.958;21.780;2023-08-21T01:52:42;15.30;;;12.82;;
63975;SDS011;50167;47.958;21.780;2023-08-21T01:55:08;17.60;;;13.28;;
63975;SDS011;50167;47.958;21.780;2023-08-21T01:57:35;15.38;;;13.90;;
63975;SDS011;50167;47.958;21.780;2023-08-21T02:00:02;15.28;;;13.28;;
63975;SDS011;50167;47.958;21.780;2023-08-21T02:02:30;15.20;;;13.03;;
63975;SDS011;50167;47.958;21.780;2023-08-21T02:04:56;15.50;;;13.93;;
63975;SDS011;50167;47.958;21.780;2023-08-21T02:07:23;14.13;;;12.55;;
63975;SDS011;50167;47.958;21.780;2023-08-21T02:09:49;19.50;;;14.35;;
63975;SDS011;50167;47.958;21.780;2023-08-21T02:12:15;18.35;;;13.85;;
63975;SDS011;50167;47.958;21.780;2023-08-21T02:14:42;13.90;;;12.47;;
63975;SDS011;50167;47.958;21.780;2023-08-21T02:17:08;14.65;;;13.25;;
63975;SDS011;50167;47.958;21.780;2023-08-21T02:19:34;13.78;;;12.45;;
63975;SDS011;50167;47.958;21.780;2023-08-21T02:22:00;13.80;;;12.18;;
63975;SDS011;50167;47.958;21.780;2023-08-21T02:24:26;14.07;;;12.78;;
63975;SDS011;50167;47.958;21.780;2023-08-21T02:26:53;14.53;;;13.00;;
63975;SDS011;50167;47.958;21.780;2023-08-21T02:29:20;18.05;;;12.85;;
63975;SDS011;50167;47.958;21.780;2023-08-21T02:31:47;16.85;;;13.55;;
63975;SDS011;50167;47.958;21.780;2023-08-21T02:34:13;14.07;;;12.58;;
63975;SDS011;50167;47.958;21.780;2023-08-21T02:36:39;14.35;;;12.98;;
63975;SDS011;50167;47.958;21.780;2023-08-21T02:39:06;14.80;;;13.30;;
63975;SDS011;50167;47.958;21.780;2023-08-21T02:41:32;12.90;;;11.63;;
63975;SDS011;50167;47.958;21.780;2023-08-21T02:43:58;15.68;;;14.18;;
63975;SDS011;50167;47.958;21.780;2023-08-21T02:46:24;20.20;;;13.18;;
63975;SDS011;50167;47.958;21.780;2023-08-21T02:48:52;16.42;;;11.93;;
63975;SDS011;50167;47.958;21.780;2023-08-21T02:51:19;13.80;;;12.40;;
63975;SDS011;50167;47.958;21.780;2023-08-21T02:53:45;16.27;;;13.15;;
63975;SDS011;50167;47.958;21.780;2023-08-21T02:56:11;15.50;;;13.70;;
63975;SDS011;50167;47.958;21.780;2023-08-21T02:58:37;17.07;;;14.90;;
63975;SDS011;50167;47.958;21.780;2023-08-21T03:01:03;16.15;;;14.65;;
63975;SDS011;50167;47.958;21.780;2023-08-21T03:03:29;16.10;;;13.10;;
63975;SDS011;50167;47.958;21.780;2023-08-21T03:05:57;15.95;;;14.43;;
63975;SDS011;50167;47.958;21.780;2023-08-21T03:08:24;15.20;;;13.62;;
63975;SDS011;50167;47.958;21.780;2023-08-21T03:10:50;14.75;;;13.15;;
63975;SDS011;50167;47.958;21.780;2023-08-21T03:13:16;14.83;;;13.25;;
63975;SDS011;50167;47.958;21.780;2023-08-21T03:15:43;15.08;;;12.75;;
63975;SDS011;50167;47.958;21.780;2023-08-21T03:18:10;19.42;;;13.22;;
63975;SDS011;50167;47.958;21.780;2023-08-21T03:20:36;19.85;;;15.23;;
63975;SDS011;50167;47.958;21.780;2023-08-21T03:23:03;16.50;;;14.80;;
63975;SDS011;50167;47.958;21.780;2023-08-21T03:25:29;16.27;;;14.58;;
63975;SDS011;50167;47.958;21.780;2023-08-21T03:27:55;16.25;;;14.58;;
63975;SDS011;50167;47.958;21.780;2023-08-21T03:30:21;16.32;;;13.95;;
63975;SDS011;50167;47.958;21.780;2023-08-21T03:32:48;21.07;;;14.87;;
63975;SDS011;50167;47.958;21.780;2023-08-21T03:35:14;15.23;;;13.48;;
63975;SDS011;50167;47.958;21.780;2023-08-21T03:37:40;15.35;;;13.75;;
63975;SDS011;50167;47.958;21.780;2023-08-21T03:40:07;15.03;;;13.62;;
63975;SDS011;50167;47.958;21.780;2023-08-21T03:42:34;18.10;;;15.05;;
63975;SDS011;50167;47.958;21.780;2023-08-21T03:45:00;14.75;;;13.38;;
63975;SDS011;50167;47.958;21.780;2023-08-21T03:47:30;20.10;;;16.43;;
63975;SDS011;50167;47.958;21.780;2023-08-21T03:49:56;18.48;;;15.05;;
63975;SDS011;50167;47.958;21.780;2023-08-21T03:52:23;17.60;;;15.10;;
63975;SDS011;50167;47.958;21.780;2023-08-21T03:54:49;16.52;;;14.73;;
63975;SDS011;50167;47.958;21.780;2023-08-21T03:57:15;15.98;;;14.30;;
63975;SDS011;50167;47.958;21.780;2023-08-21T03:59:41;18.48;;;14.70;;
63975;SDS011;50167;47.958;21.780;2023-08-21T04:02:08;19.95;;;14.53;;
63975;SDS011;50167;47.958;21.780;2023-08-21T04:04:34;17.55;;;14.45;;
63975;SDS011;50167;47.958;21.780;2023-08-21T04:07:00;21.62;;;16.07;;
63975;SDS011;50167;47.958;21.780;2023-08-21T04:09:27;17.07;;;15.38;;
63975;SDS011;50167;47.958;21.780;2023-08-21T04:11:53;17.87;;;14.78;;
63975;SDS011;50167;47.958;21.780;2023-08-21T04:14:19;18.32;;;14.47;;
63975;SDS011;50167;47.958;21.780;2023-08-21T04:16:45;17.85;;;15.55;;
63975;SDS011;50167;47.958;21.780;2023-08-21T04:19:12;17.55;;;14.33;;
63975;SDS011;50167;47.958;21.780;2023-08-21T04:21:38;28.27;;;14.60;;
63975;SDS011;50167;47.958;21.780;2023-08-21T04:24:04;18.15;;;13.55;;
63975;SDS011;50167;47.958;21.780;2023-08-21T04:26:31;16.10;;;13.50;;
63975;SDS011;50167;47.958;21.780;2023-08-21T04:28:57;17.20;;;12.58;;
63975;SDS011;50167;47.958;21.780;2023-08-21T04:31:23;14.45;;;12.15;;
63975;SDS011;50167;47.958;21.780;2023-08-21T04:33:49;14.78;;;13.38;;
63975;SDS011;50167;47.958;21.780;2023-08-21T04:36:16;16.62;;;14.30;;
63975;SDS011;50167;47.958;21.780;2023-08-21T04:38:43;23.77;;;15.15;;
63975;SDS011;50167;47.958;21.780;2023-08-21T04:41:09;16.55;;;14.80;;
63975;SDS011;50167;47.958;21.780;2023-08-21T04:43:36;18.35;;;14.20;;
63975;SDS011;50167;47.958;21.780;2023-08-21T04:46:02;15.72;;;14.10;;
63975;SDS011;50167;47.958;21.780;2023-08-21T04:48:31;17.55;;;13.75;;
63975;SDS011;50167;47.958;21.780;2023-08-21T04:50:57;19.77;;;13.68;;
63975;SDS011;50167;47.958;21.780;2023-08-21T04:53:23;16.10;;;12.70;;
63975;SDS011;50167;47.958;21.780;2023-08-21T04:55:50;15.53;;;12.75;;
63975;SDS011;50167;47.958;21.780;2023-08-21T04:58:16;16.23;;;13.58;;
63975;SDS011;50167;47.958;21.780;2023-08-21T05:00:44;21.02;;;13.35;;
63975;SDS011;50167;47.958;21.780;2023-08-21T05:03:11;20.50;;;14.18;;
63975;SDS011;50167;47.958;21.780;2023-08-21T05:05:37;22.27;;;14.40;;
63975;SDS011;50167;47.958;21.780;2023-08-21T05:08:05;17.52;;;13.88;;
63975;SDS011;50167;47.958;21.780;2023-08-21T05:10:31;15.90;;;14.25;;
63975;SDS011;50167;47.958;21.780;2023-08-21T05:12:58;14.80;;;13.35;;
63975;SDS011;50167;47.958;21.780;2023-08-21T05:15:24;14.70;;;13.30;;
63975;SDS011;50167;47.958;21.780;2023-08-21T05:17:50;19.12;;;13.30;;
63975;SDS011;50167;47.958;21.780;2023-08-21T05:20:17;15.15;;;13.43;;
63975;SDS011;50167;47.958;21.780;2023-08-21T05:22:43;13.68;;;12.37;;
63975;SDS011;50167;47.958;21.780;2023-08-21T05:25:10;16.32;;;13.68;;
63975;SDS011;50167;47.958;21.780;2023-08-21T05:27:36;19.10;;;15.50;;
63975;SDS011;50167;47.958;21.780;2023-08-21T05:30:03;14.80;;;13.30;;
63975;SDS011;50167;47.958;21.780;2023-08-21T05:32:30;15.25;;;12.80;;
63975;SDS011;50167;47.958;21.780;2023-08-21T05:34:56;18.65;;;13.58;;
63975;SDS011;50167;47.958;21.780;2023-08-21T05:37:23;17.48;;;13.50;;
63975;SDS011;50167;47.958;21.780;2023-08-21T05:39:49;14.70;;;12.78;;
63975;SDS011;50167;47.958;21.780;2023-08-21T05:42:15;16.12;;;12.78;;
63975;SDS011;50167;47.958;21.780;2023-08-21T05:44:41;13.62;;;12.28;;
63975;SDS011;50167;47.958;21.780;2023-08-21T05:47:08;14.58;;;12.63;;
63975;SDS011;50167;47.958;21.780;2023-08-21T05:49:34;13.03;;;11.73;;
63975;SDS011;50167;47.958;21.780;2023-08-21T05:52:01;14.95;;;12.15;;
63975;SDS011;50167;47.958;21.780;2023-08-21T05:54:28;17.45;;;12.18;;
63975;SDS011;50167;47.958;21.780;2023-08-21T05:56:56;13.10;;;11.73;;
63975;SDS011;50167;47.958;21.780;2023-08-21T05:59:31;12.78;;;11.57;;
63975;SDS011;50167;47.958;21.780;2023-08-21T06:02:00;12.40;;;11.10;;
63975;SDS011;50167;47.958;21.780;2023-08-21T06:04:27;12.63;;;11.45;;
63975;SDS011;50167;47.958;21.780;2023-08-21T06:06:53;12.50;;;11.40;;
63975;SDS011;50167;47.958;21.780;2023-08-21T06:09:19;17.20;;;12.18;;
63975;SDS011;50167;47.958;21.780;2023-08-21T06:11:46;16.02;;;12.10;;
63975;SDS011;50167;47.958;21.780;2023-08-21T06:14:12;13.45;;;12.03;;
63975;SDS011;50167;47.958;21.780;2023-08-21T06:16:39;12.75;;;11.50;;
63975;SDS011;50167;47.958;21.780;2023-08-21T06:19:05;15.20;;;11.83;;
63975;SDS011;50167;47.958;21.780;2023-08-21T06:21:31;15.65;;;11.95;;
63975;SDS011;50167;47.958;21.780;2023-08-21T06:23:58;14.58;;;11.20;;
63975;SDS011;50167;47.958;21.780;2023-08-21T06:26:24;13.75;;;12.33;;
63975;SDS011;50167;47.958;21.780;2023-08-21T06:28:51;16.37;;;12.13;;
63975;SDS011;50167;47.958;21.780;2023-08-21T06:31:18;12.60;;;11.35;;
63975;SDS011;50167;47.958;21.780;2023-08-21T06:33:50;13.53;;;11.75;;
63975;SDS011;50167;47.958;21.780;2023-08-21T06:36:16;18.42;;;11.30;;
63975;SDS011;50167;47.958;21.780;2023-08-21T06:38:51;16.25;;;11.83;;
63975;SDS011;50167;47.958;21.780;2023-08-21T06:41:17;12.65;;;10.82;;
63975;SDS011;50167;47.958;21.780;2023-08-21T06:43:44;17.27;;;11.57;;
63975;SDS011;50167;47.958;21.780;2023-08-21T06:46:11;13.53;;;10.48;;
63975;SDS011;50167;47.958;21.780;2023-08-21T06:48:42;11.65;;;10.40;;
63975;SDS011;50167;47.958;21.780;2023-08-21T06:51:09;11.70;;;10.53;;
63975;SDS011;50167;47.958;21.780;2023-08-21T06:53:36;12.75;;;10.98;;
63975;SDS011;50167;47.958;21.780;2023-08-21T06:59:26;13.48;;;10.30;;
63975;SDS011;50167;47.958;21.780;2023-08-21T07:01:52;11.03;;;10.10;;
63975;SDS011;50167;47.958;21.780;2023-08-21T07:04:19;18.92;;;11.10;;
63975;SDS011;50167;47.958;21.780;2023-08-21T07:06:45;11.08;;;9.95;;
63975;SDS011;50167;47.958;21.780;2023-08-21T07:09:11;11.48;;;10.10;;
63975;SDS011;50167;47.958;21.780;2023-08-21T07:11:37;15.25;;;10.03;;
63975;SDS011;50167;47.958;21.780;2023-08-21T07:14:03;16.35;;;10.90;;
63975;SDS011;50167;47.958;21.780;2023-08-21T07:16:30;18.65;;;11.55;;
63975;SDS011;50167;47.958;21.780;2023-08-21T07:18:56;12.10;;;10.85;;
63975;SDS011;50167;47.958;21.780;2023-08-21T07:21:22;12.95;;;10.35;;
63975;SDS011;50167;47.958;21.780;2023-08-21T07:23:48;13.95;;;11.08;;
63975;SDS011;50167;47.958;21.780;2023-08-21T07:26:24;22.10;;;10.95;;
63975;SDS011;50167;47.958;21.780;2023-08-21T07:28:50;11.35;;;10.25;;
63975;SDS011;50167;47.958;21.780;2023-08-21T07:31:18;12.70;;;11.40;;
63975;SDS011;50167;47.958;21.780;2023-08-21T07:33:44;10.58;;;9.58;;
63975;SDS011;50167;47.958;21.780;2023-08-21T07:36:10;11.15;;;9.95;;
63975;SDS011;50167;47.958;21.780;2023-08-21T07:38:38;12.47;;;11.33;;
63975;SDS011;50167;47.958;21.780;2023-08-21T07:41:05;15.58;;;10.82;;
63975;SDS011;50167;47.958;21.780;2023-08-21T07:43:36;15.75;;;10.50;;
63975;SDS011;50167;47.958;21.780;2023-08-21T07:46:08;15.55;;;10.48;;
63975;SDS011;50167;47.958;21.780;2023-08-21T07:48:44;10.63;;;9.58;;
63975;SDS011;50167;47.958;21.780;2023-08-21T07:51:11;15.90;;;11.68;;
63975;SDS011;50167;47.958;21.780;2023-08-21T07:53:37;14.70;;;10.75;;
63975;SDS011;50167;47.958;21.780;2023-08-21T07:56:04;15.53;;;10.18;;
63975;SDS011;50167;47.958;21.780;2023-08-21T07:58:31;13.45;;;10.50;;
63975;SDS011;50167;47.958;21.780;2023-08-21T08:00:58;12.73;;;10.45;;
63975;SDS011;50167;47.958;21.780;2023-08-21T08:03:26;11.05;;;9.98;;
63975;SDS011;50167;47.958;21.780;2023-08-21T08:05:53;13.60;;;10.05;;
63975;SDS011;50167;47.958;21.780;2023-08-21T08:08:19;14.90;;;11.35;;
63975;SDS011;50167;47.958;21.780;2023-08-21T08:10:45;12.90;;;9.83;;
63975;SDS011;50167;47.958;21.780;2023-08-21T08:13:11;13.25;;;10.05;;
63975;SDS011;50167;47.958;21.780;2023-08-21T08:15:38;13.80;;;9.58;;
63975;SDS011;50167;47.958;21.780;2023-08-21T08:18:04;14.25;;;9.78;;
63975;SDS011;50167;47.958;21.780;2023-08-21T08:20:32;11.25;;;9.93;;
63975;SDS011;50167;47.958;21.780;2023-08-21T08:22:59;11.73;;;9.88;;
63975;SDS011;50167;47.958;21.780;2023-08-21T08:25:25;12.65;;;9.68;;
63975;SDS011;50167;47.958;21.780;2023-08-21T08:27:51;12.93;;;9.13;;
63975;SDS011;50167;47.958;21.780;2023-08-21T08:30:18;13.05;;;10.25;;
63975;SDS011;50167;47.958;21.780;2023-08-21T08:32:44;11.73;;;9.28;;
63975;SDS011;50167;47.958;21.780;2023-08-21T08:35:12;11.43;;;10.25;;
63975;SDS011;50167;47.958;21.780;2023-08-21T08:37:42;17.95;;;9.30;;
63975;SDS011;50167;47.958;21.780;2023-08-21T08:40:09;9.78;;;8.75;;
63975;SDS011;50167;47.958;21.780;2023-08-21T08:42:37;10.50;;;9.48;;
63975;SDS011;50167;47.958;21.780;2023-08-21T08:45:04;17.05;;;10.20;;
63975;SDS011;50167;47.958;21.780;2023-08-21T08:47:32;11.38;;;9.53;;
63975;SDS011;50167;47.958;21.780;2023-08-21T08:50:03;11.38;;;9.28;;
63975;SDS011;50167;47.958;21.780;2023-08-21T08:52:35;12.37;;;9.33;;
63975;SDS011;50167;47.958;21.780;2023-08-21T08:55:04;12.20;;;9.58;;
63975;SDS011;50167;47.958;21.780;2023-08-21T08:57:34;11.78;;;8.85;;
63975;SDS011;50167;47.958;21.780;2023-08-21T09:00:02;10.23;;;9.30;;
63975;SDS011;50167;47.958;21.780;2023-08-21T09:02:29;10.70;;;9.28;;
63975;SDS011;50167;47.958;21.780;2023-08-21T09:04:56;10.23;;;9.13;;
63975;SDS011;50167;47.958;21.780;2023-08-21T09:07:22;10.43;;;8.83;;
63975;SDS011;50167;47.958;21.780;2023-08-21T09:09:49;12.70;;;8.95;;
63975;SDS011;50167;47.958;21.780;2023-08-21T09:12:16;13.08;;;8.63;;
63975;SDS011;50167;47.958;21.780;2023-08-21T09:14:43;9.58;;;8.58;;
63975;SDS011;50167;47.958;21.780;2023-08-21T09:17:11;10.85;;;9.83;;
63975;SDS011;50167;47.958;21.780;2023-08-21T09:19:38;9.80;;;8.80;;
63975;SDS011;50167;47.958;21.780;2023-08-21T09:22:08;13.38;;;8.90;;
63975;SDS011;50167;47.958;21.780;2023-08-21T09:24:40;9.45;;;8.45;;
63975;SDS011;50167;47.958;21.780;2023-08-21T09:27:16;13.30;;;9.83;;
63975;SDS011;50167;47.958;21.780;2023-08-21T09:29:42;10.68;;;8.75;;
63975;SDS011;50167;47.958;21.780;2023-08-21T09:32:08;10.50;;;9.00;;
63975;SDS011;50167;47.958;21.780;2023-08-21T09:34:35;12.13;;;8.83;;
63975;SDS011;50167;47.958;21.780;2023-08-21T09:37:06;13.38;;;7.90;;
63975;SDS011;50167;47.958;21.780;2023-08-21T09:39:35;9.38;;;8.30;;
63975;SDS011;50167;47.958;21.780;2023-08-21T09:42:08;11.20;;;8.33;;
63975;SDS011;50167;47.958;21.780;2023-08-21T09:44:39;9.38;;;8.48;;
63975;SDS011;50167;47.958;21.780;2023-08-21T09:47:13;9.50;;;7.90;;
63975;SDS011;50167;47.958;21.780;2023-08-21T09:49:38;11.53;;;9.18;;
63975;SDS011;50167;47.958;21.780;2023-08-21T09:52:06;13.15;;;8.18;;
63975;SDS011;50167;47.958;21.780;2023-08-21T09:54:39;7.97;;;7.22;;
63975;SDS011;50167;47.958;21.780;2023-08-21T09:57:06;16.12;;;8.03;;
63975;SDS011;50167;47.958;21.780;2023-08-21T09:59:33;9.15;;;8.30;;
63975;SDS011;50167;47.958;21.780;2023-08-21T10:02:01;10.53;;;7.33;;
63975;SDS011;50167;47.958;21.780;2023-08-21T10:04:30;9.28;;;8.38;;
63975;SDS011;50167;47.958;21.780;2023-08-21T10:06:59;13.08;;;8.85;;
63975;SDS011;50167;47.958;21.780;2023-08-21T10:09:28;8.68;;;7.55;;
63975;SDS011;50167;47.958;21.780;2023-08-21T10:11:56;12.07;;;8.25;;
63975;SDS011;50167;47.958;21.780;2023-08-21T10:14:23;8.93;;;8.03;;
63975;SDS011;50167;47.958;21.780;2023-08-21T10:16:52;11.55;;;7.45;;
63975;SDS011;50167;47.958;21.780;2023-08-21T10:19:19;10.88;;;7.90;;
63975;SDS011;50167;47.958;21.780;2023-08-21T10:21:47;11.43;;;8.00;;
63975;SDS011;50167;47.958;21.780;2023-08-21T10:24:25;9.55;;;7.47;;
63975;SDS011;50167;47.958;21.780;2023-08-21T10:26:59;11.48;;;7.60;;
63975;SDS011;50167;47.958;21.780;2023-08-21T10:29:26;8.38;;;7.45;;
63975;SDS011;50167;47.958;21.780;2023-08-21T10:31:58;7.53;;;6.85;;
63975;SDS011;50167;47.958;21.780;2023-08-21T10:34:33;11.57;;;8.25;;
63975;SDS011;50167;47.958;21.780;2023-08-21T10:37:13;9.40;;;7.10;;
63975;SDS011;50167;47.958;21.780;2023-08-21T10:39:52;9.83;;;7.20;;
63975;SDS011;50167;47.958;21.780;2023-08-21T10:42:40;8.13;;;7.33;;
63975;SDS011;50167;47.958;21.780;2023-08-21T10:45:11;8.83;;;7.17;;
63975;SDS011;50167;47.958;21.780;2023-08-21T10:47:38;10.23;;;7.12;;
63975;SDS011;50167;47.958;21.780;2023-08-21T10:50:08;8.40;;;7.15;;
63975;SDS011;50167;47.958;21.780;2023-08-21T10:52:36;8.75;;;7.35;;
63975;SDS011;50167;47.958;21.780;2023-08-21T10:55:07;10.70;;;7.40;;
63975;SDS011;50167;47.958;21.780;2023-08-21T10:57:36;8.70;;;7.78;;
63975;SDS011;50167;47.958;21.780;2023-08-21T11:00:10;10.38;;;7.55;;
63975;SDS011;50167;47.958;21.780;2023-08-21T11:02:40;12.60;;;7.70;;
63975;SDS011;50167;47.958;21.780;2023-08-21T11:05:09;8.70;;;7.75;;
63975;SDS011;50167;47.958;21.780;2023-08-21T11:07:41;8.35;;;7.10;;
63975;SDS011;50167;47.958;21.780;2023-08-21T11:10:12;10.90;;;7.97;;
63975;SDS011;50167;47.958;21.780;2023-08-21T11:12:51;9.35;;;7.62;;
63975;SDS011;50167;47.958;21.780;2023-08-21T11:15:24;9.05;;;8.25;;
63975;SDS011;50167;47.958;21.780;2023-08-21T11:20:29;10.78;;;7.67;;
63975;SDS011;50167;47.958;21.780;2023-08-21T11:22:57;12.73;;;7.40;;
63975;SDS011;50167;47.958;21.780;2023-08-21T11:25:30;9.98;;;8.18;;
63975;SDS011;50167;47.958;21.780;2023-08-21T11:27:57;9.43;;;6.85;;
63975;SDS011;50167;47.958;21.780;2023-08-21T11:30:23;8.90;;;7.12;;
63975;SDS011;50167;47.958;21.780;2023-08-21T11:33:12;8.35;;;7.55;;
63975;SDS011;50167;47.958;21.780;2023-08-21T11:35:34;11.38;;;8.30;;
63975;SDS011;50167;47.958;21.780;2023-08-21T11:38:01;8.63;;;7.83;;
63975;SDS011;50167;47.958;21.780;2023-08-21T11:40:28;10.15;;;6.45;;
63975;SDS011;50167;47.958;21.780;2023-08-21T11:42:59;8.85;;;7.30;;
63975;SDS011;50167;47.958;21.780;2023-08-21T11:45:26;8.28;;;7.22;;
63975;SDS011;50167;47.958;21.780;2023-08-21T11:47:55;8.48;;;6.87;;
63975;SDS011;50167;47.958;21.780;2023-08-21T11:50:24;8.53;;;7.67;;
63975;SDS011;50167;47.958;21.780;2023-08-21T11:52:52;10.30;;;8.25;;
63975;SDS011;50167;47.958;21.780;2023-08-21T11:55:20;11.25;;;7.65;;
63975;SDS011;50167;47.958;21.780;2023-08-21T11:57:51;9.33;;;7.45;;
63975;SDS011;50167;47.958;21.780;2023-08-21T12:00:19;7.58;;;6.37;;
63975;SDS011;50167;47.958;21.780;2023-08-21T12:02:54;8.23;;;7.40;;
63975;SDS011;50167;47.958;21.780;2023-08-21T12:05:23;12.58;;;7.55;;
63975;SDS011;50167;47.958;21.780;2023-08-21T12:07:50;8.23;;;6.85;;
63975;SDS011;50167;47.958;21.780;2023-08-21T12:10:26;8.20;;;7.37;;
63975;SDS011;50167;47.958;21.780;2023-08-21T12:12:55;8.38;;;7.50;;
63975;SDS011;50167;47.958;21.780;2023-08-21T12:15:22;7.40;;;6.75;;
63975;SDS011;50167;47.958;21.780;2023-08-21T12:17:48;7.35;;;6.55;;
63975;SDS011;50167;47.958;21.780;2023-08-21T12:20:14;9.38;;;7.60;;
63975;SDS011;50167;47.958;21.780;2023-08-21T12:22:41;8.95;;;7.12;;
63975;SDS011;50167;47.958;21.780;2023-08-21T12:25:10;7.12;;;6.53;;
63975;SDS011;50167;47.958;21.780;2023-08-21T12:27:36;10.98;;;6.90;;
63975;SDS011;50167;47.958;21.780;2023-08-21T12:30:03;8.13;;;7.03;;
63975;SDS011;50167;47.958;21.780;2023-08-21T12:32:31;11.10;;;7.72;;
63975;SDS011;50167;47.958;21.780;2023-08-21T12:34:57;8.93;;;6.97;;
63975;SDS011;50167;47.958;21.780;2023-08-21T12:41:26;7.72;;;6.42;;
63975;SDS011;50167;47.958;21.780;2023-08-21T12:43:52;10.55;;;6.50;;
63975;SDS011;50167;47.958;21.780;2023-08-21T12:46:18;7.42;;;6.17;;
63975;SDS011;50167;47.958;21.780;2023-08-21T12:48:44;12.18;;;7.70;;
63975;SDS011;50167;47.958;21.780;2023-08-21T12:51:11;7.10;;;6.50;;
63975;SDS011;50167;47.958;21.780;2023-08-21T12:53:37;7.67;;;6.42;;
63975;SDS011;50167;47.958;21.780;2023-08-21T12:56:03;13.50;;;6.28;;
63975;SDS011;50167;47.958;21.780;2023-08-21T12:58:30;8.75;;;5.72;;
63975;SDS011;50167;47.958;21.780;2023-08-21T13:00:56;7.17;;;6.22;;
63975;SDS011;50167;47.958;21.780;2023-08-21T13:03:22;10.32;;;5.40;;
63975;SDS011;50167;47.958;21.780;2023-08-21T13:05:49;7.95;;;5.80;;
63975;SDS011;50167;47.958;21.780;2023-08-21T13:08:15;10.45;;;6.05;;
63975;SDS011;50167;47.958;21.780;2023-08-21T13:10:41;6.28;;;5.35;;
63975;SDS011;50167;47.958;21.780;2023-08-21T13:13:08;6.22;;;4.97;;
63975;SDS011;50167;47.958;21.780;2023-08-21T13:15:34;9.58;;;6.83;;
63975;SDS011;50167;47.958;21.780;2023-08-21T13:18:00;6.47;;;5.55;;
63975;SDS011;50167;47.958;21.780;2023-08-21T13:20:27;7.85;;;5.47;;
63975;SDS011;50167;47.958;21.780;2023-08-21T13:22:54;8.45;;;5.80;;
63975;SDS011;50167;47.958;21.780;2023-08-21T13:25:21;7.17;;;5.85;;
63975;SDS011;50167;47.958;21.780;2023-08-21T13:28:08;7.72;;;5.72;;
63975;SDS011;50167;47.958;21.780;2023-08-21T13:30:34;5.95;;;5.35;;
63975;SDS011;50167;47.958;21.780;2023-08-21T13:33:00;9.50;;;4.78;;
63975;SDS011;50167;47.958;21.780;2023-08-21T13:35:29;6.15;;;5.50;;
63975;SDS011;50167;47.958;21.780;2023-08-21T13:37:56;7.78;;;5.28;;
63975;SDS011;50167;47.958;21.780;2023-08-21T13:40:23;7.97;;;6.22;;
63975;SDS011;50167;47.958;21.780;2023-08-21T13:42:50;5.60;;;5.10;;
63975;SDS011;50167;47.958;21.780;2023-08-21T13:45:18;8.25;;;4.83;;
63975;SDS011;50167;47.958;21.780;2023-08-21T13:47:46;6.92;;;4.62;;
63975;SDS011;50167;47.958;21.780;2023-08-21T13:50:15;7.70;;;5.37;;
63975;SDS011;50167;47.958;21.780;2023-08-21T13:52:43;8.78;;;5.08;;
63975;SDS011;50167;47.958;21.780;2023-08-21T13:55:12;5.35;;;4.85;;
63975;SDS011;50167;47.958;21.780;2023-08-21T13:57:39;6.95;;;5.00;;
63975;SDS011;50167;47.958;21.780;2023-08-21T14:00:06;7.42;;;5.30;;
63975;SDS011;50167;47.958;21.780;2023-08-21T14:02:37;8.80;;;4.80;;
63975;SDS011;50167;47.958;21.780;2023-08-21T14:05:04;16.25;;;5.58;;
63975;SDS011;50167;47.958;21.780;2023-08-21T14:07:31;10.63;;;4.83;;
63975;SDS011;50167;47.958;21.780;2023-08-21T14:09:58;7.80;;;5.62;;
63975;SDS011;50167;47.958;21.780;2023-08-21T14:12:27;6.45;;;5.83;;
63975;SDS011;50167;47.958;21.780;2023-08-21T14:14:56;7.92;;;4.95;;
63975;SDS011;50167;47.958;21.780;2023-08-21T14:17:23;6.05;;;5.00;;
63975;SDS011;50167;47.958;21.780;2023-08-21T14:19:50;5.67;;;4.80;;
63975;SDS011;50167;47.958;21.780;2023-08-21T14:22:16;7.65;;;4.92;;
63975;SDS011;50167;47.958;21.780;2023-08-21T14:24:42;10.70;;;4.83;;
63975;SDS011;50167;47.958;21.780;2023-08-21T14:27:09;7.50;;;4.78;;
63975;SDS011;50167;47.958;21.780;2023-08-21T14:29:35;6.25;;;4.85;;
63975;SDS011;50167;47.958;21.780;2023-08-21T14:32:01;6.80;;;4.58;;
63975;SDS011;50167;47.958;21.780;2023-08-21T14:34:28;7.15;;;4.87;;